Terminal Aerodrome Forecast
Issued by NWS El Paso, TX

Home | Current Version | Previous Version | Text Only | Print | Product List | Glossary On
Versions: 1 2 3 4 5 6 7 8 9 10 11 12 13 14 15 16
000
FTUS44 KEPZ 280523
TAFELP
TAF
KELP 280523Z 2806/2906 VRB05KT P6SM SCT080 BKN100 BKN250
     FM280800 VRB05KT P6SM SCT100 BKN250
     FM282000 33005KT P6SM VCTS SCT070CB BKN150
     FM290400 15007KT P6SM SCT100 BKN250=

USA.gov is the U.S. government's official web portal to all federal, state and local government web resources and services.